Pagrindinis puslapis
METAR-TAF:

METAR-TAF

Oro uostai :

Viljavisensijas, Kolumbija

platuma: 04-10N, ilguma: 073-37W, Aukštis: 423 m

Dabartinis oras

Ataskaita buvo paskelbta 4 valandos ir 23 minutes, ne 23:00 UTC
Vėjas 6 kt iš Vakarų/Šiaurės Vakarų
Temperatūra 24°C
Drėgmė 89%
Slėgis 1015 hPa
Matomumas 10 km arba daugiau
Su prošvaistėmis ne aukštis 2000 ft
Išsisklaidę debesys ne aukštis 9000 ft

METAR: SKVV 262300Z 29006KT 9999 BKN020 SCT090 24/22 A2996

Laikas: 22:23 (03:23 UTC)


TAF: trūkstamas

Orai ataskaitas ir orų prognozės (METAR, TAF).

turimą stotys yra geltonos ir raudonos taškus žemėlapyje.

Perkelti pele per norėdami pamatyti stoties vardą.

Tada spustelėkite, norėdami matyti oro stebėjimo ir prognozės.

Norėdami pakeisti žemėlapį: spustelėkite ant žalios mygtukų su juodo kryžiaus žemyn,; žalią mygtuką su brūkšneliu, jei norite nutolinti; arba žalių rodyklių gretimoms žemėlapius.


METAR-TAF: